Time;durP1;ratioP1;P1;durP2;ratioP2;P2;SDS_P1;SDS_P2;PMS_P1;PMS_P2;Temp;Humidity;BMP_temperature;BMP_pressure;BME280_temperature;BME280_humidity;BME280_pressure;Samples;Min_cycle;Max_cycle;Signal;HPM_P1;HPM_P2
2022/11/18 00:01:21;;;;;;;1999.90;999.90;;;;;;;8.38;100.00;92667.13;4978504;28;20179;-69
2022/11/18 00:03:47;;;;;;;1999.90;999.90;;;;;;;8.39;100.00;92657.78;4979273;28;20232;-69
2022/11/18 00:06:16;;;;;;;1999.90;999.90;;;;;;;8.33;100.00;92640.56;4978702;28;20183;-69
2022/11/18 00:08:41;;;;;;;1999.90;999.90;;;;;;;8.31;100.00;92623.94;4979014;28;20187;-61
2022/11/18 00:11:12;;;;;;;1999.90;999.90;;;;;;;8.32;100.00;92611.88;4979057;28;20301;-60
2022/11/18 00:16:23;;;;;;;1999.90;999.90;;;;;;;8.24;100.00;92564.47;4995804;28;20279;-67
2022/11/18 00:18:48;;;;;;;1999.90;999.90;;;;;;;8.20;100.00;92547.53;4978527;28;20187;-68
2022/11/18 00:21:14;;;;;;;1999.90;999.90;;;;;;;8.21;100.00;92538.19;4978310;28;20184;-68
2022/11/18 00:23:39;;;;;;;1999.90;999.90;;;;;;;8.23;100.00;92514.03;4978306;28;20183;-67
2022/11/18 00:26:10;;;;;;;1999.90;999.90;;;;;;;8.21;100.00;92505.59;4977948;28;20178;-67
2022/11/18 00:28:35;;;;;;;1999.90;999.90;;;;;;;8.19;100.00;92486.22;4978948;28;20176;-73
2022/11/18 00:31:12;;;;;;;1999.90;999.90;;;;;;;8.17;100.00;92466.91;4978461;28;20554;-73
2022/11/18 00:33:38;;;;;;;1999.90;999.90;;;;;;;8.17;100.00;92450.63;4978841;28;20207;-73
2022/11/18 00:36:05;;;;;;;1999.90;999.90;;;;;;;8.14;100.00;92439.91;4978649;28;20533;-73
2022/11/18 00:38:31;;;;;;;1999.90;999.90;;;;;;;8.11;100.00;92433.41;4978165;28;20194;-69
2022/11/18 00:41:00;;;;;;;1999.90;999.90;;;;;;;8.11;100.00;92425.25;4978095;28;20214;-69
2022/11/18 00:43:25;;;;;;;1999.90;999.90;;;;;;;8.10;100.00;92410.19;4978105;28;20218;-69
2022/11/18 00:45:50;;;;;;;1999.90;999.90;;;;;;;8.07;100.00;92394.78;4977983;28;20191;-63
2022/11/18 00:48:20;;;;;;;1999.90;999.90;;;;;;;8.07;100.00;92392.06;4978477;28;20180;-57
2022/11/18 00:50:55;;;;;;;1999.90;999.90;;;;;;;8.07;100.00;92388.59;4977966;28;20208;-63
2022/11/18 00:53:23;;;;;;;1999.90;999.90;;;;;;;8.05;100.00;92386.34;4977694;28;20187;-64
2022/11/18 00:55:49;;;;;;;1999.90;999.90;;;;;;;8.06;100.00;92379.72;4977920;28;20217;-64
2022/11/18 00:58:15;;;;;;;1999.90;999.90;;;;;;;8.08;100.00;92373.81;4977854;28;20176;-64
2022/11/18 01:00:45;;;;;;;1999.90;999.90;;;;;;;8.04;100.00;92373.97;4978454;28;20221;-63
2022/11/18 01:03:11;;;;;;;1999.90;999.90;;;;;;;7.98;100.00;92366.91;4977612;28;20253;-63
2022/11/18 01:05:38;;;;;;;1999.90;999.90;;;;;;;8.03;100.00;92356.16;4980303;28;20199;-69
2022/11/18 01:08:08;;;;;;;1999.90;999.90;;;;;;;8.05;100.00;92353.72;4981435;28;20269;-63
2022/11/18 01:10:34;;;;;;;1999.90;999.90;;;;;;;8.09;100.00;92346.16;4982178;28;20178;-64
2022/11/18 01:15:52;;;;;;;1999.90;999.90;;;;;;;8.05;100.00;92328.53;4999131;28;20170;-64
2022/11/18 01:18:19;;;;;;;1999.90;999.90;;;;;;;8.03;100.00;92326.28;4981303;28;20173;-63
2022/11/18 01:20:45;;;;;;;1999.90;999.90;;;;;;;8.02;100.00;92329.47;4981945;28;20202;-63
2022/11/18 01:23:12;;;;;;;1999.90;999.90;;;;;;;8.02;100.00;92324.78;4981161;28;20179;-71
2022/11/18 01:25:40;;;;;;;1999.90;999.90;;;;;;;8.01;100.00;92317.09;4981229;28;20194;-59
2022/11/18 01:28:05;;;;;;;1999.90;999.90;;;;;;;8.03;100.00;92309.97;4981263;28;20179;-59
2022/11/18 01:30:35;;;;;;;1999.90;999.90;;;;;;;8.02;100.00;92308.47;4981035;28;20182;-59
2022/11/18 01:33:02;;;;;;;1999.90;999.90;;;;;;;8.00;100.00;92296.56;4981717;28;20187;-58
2022/11/18 01:35:28;;;;;;;1999.90;999.90;;;;;;;8.01;100.00;92279.06;4981271;28;20178;-60
2022/11/18 01:37:54;;;;;;;1999.90;999.90;;;;;;;8.05;100.00;92266.78;4981710;28;20204;-60
2022/11/18 01:40:19;;;;;;;1999.90;999.90;;;;;;;8.07;100.00;92260.88;4981680;28;20236;-59
2022/11/18 01:42:45;;;;;;;1999.90;999.90;;;;;;;8.06;100.00;92252.00;4981202;28;20183;-60
2022/11/18 01:45:25;;;;;;;1999.90;999.90;;;;;;;8.10;100.00;92255.28;4980780;28;20199;-74
2022/11/18 01:48:00;;;;;;;1999.90;999.90;;;;;;;8.09;100.00;92256.47;4980691;28;20228;-72
2022/11/18 01:50:27;;;;;;;1999.90;999.90;;;;;;;8.12;100.00;92257.53;4980739;28;20219;-73
2022/11/18 01:52:58;;;;;;;1999.90;999.90;;;;;;;8.10;100.00;92251.81;4980979;28;20172;-72
2022/11/18 01:55:27;;;;;;;1999.90;999.90;;;;;;;8.10;100.00;92257.25;4980485;28;20571;-72
2022/11/18 01:58:01;;;;;;;1999.90;999.90;;;;;;;8.05;100.00;92340.16;4980519;28;20190;-72
2022/11/18 02:00:27;;;;;;;1999.90;999.90;;;;;;;7.99;100.00;92352.88;4981191;28;20209;-58
2022/11/18 02:02:52;;;;;;;1999.90;999.90;;;;;;;8.01;100.00;92355.88;4980622;28;20175;-61
2022/11/18 02:05:19;;;;;;;1999.90;999.90;;;;;;;8.01;100.00;92357.84;4980283;28;20199;-60
2022/11/18 02:07:45;;;;;;;1999.90;999.90;;;;;;;7.99;100.00;92354.81;4980772;28;20176;-60
2022/11/18 02:10:18;;;;;;;1999.90;999.90;;;;;;;7.99;100.00;92347.44;4980608;28;20174;-60
2022/11/18 02:12:44;;;;;;;1999.90;999.90;;;;;;;8.00;100.00;92346.22;4981060;28;20207;-60
2022/11/18 02:15:10;;;;;;;1999.90;999.90;;;;;;;8.00;100.00;92343.50;4980492;28;20212;-60
2022/11/18 02:18:10;;;;;;;1999.90;999.90;;;;;;;8.03;100.00;92348.03;4980213;28;20174;-62
2022/11/18 02:20:45;;;;;;;1999.90;999.90;;;;;;;8.04;100.00;92338.66;4970367;28;20215;-63
2022/11/18 02:23:29;;;;;;;1999.90;999.90;;;;;;;8.04;100.00;92333.22;4980086;28;20189;-59
2022/11/18 02:26:16;;;;;;;1999.90;999.90;;;;;;;8.03;100.00;92329.00;4981218;28;20174;-59
2022/11/18 02:29:08;;;;;;;1999.90;999.90;;;;;;;8.01;100.00;92328.69;4980715;28;20210;-60
2022/11/18 02:32:06;;;;;;;1999.90;999.90;;;;;;;8.02;100.00;92326.75;4980626;28;20533;-60
2022/11/18 02:34:38;;;;;;;1999.90;999.90;;;;;;;8.03;100.00;92320.84;4976912;28;20303;-59
2022/11/18 02:37:07;;;;;;;1999.90;999.90;;;;;;;8.04;100.00;92314.19;4980214;28;20687;-59
2022/11/18 02:39:41;;;;;;;1999.90;999.90;;;;;;;8.05;100.00;92306.81;4980142;28;20261;-61
2022/11/18 02:42:11;;;;;;;1999.90;999.90;;;;;;;7.99;100.00;92303.97;4980575;28;20203;-61
2022/11/18 02:44:43;;;;;;;1999.90;999.90;;;;;;;8.01;100.00;92304.25;4980461;28;20178;-63
2022/11/18 02:47:12;;;;;;;1999.90;999.90;;;;;;;8.02;100.00;92302.28;4980528;28;20258;-60
2022/11/18 02:49:42;;;;;;;1999.90;999.90;;;;;;;8.02;100.00;92305.78;4979597;28;20179;-61
2022/11/18 02:52:10;;;;;;;1999.90;999.90;;;;;;;8.02;100.00;92299.56;4996861;28;20217;-60
2022/11/18 02:54:39;;;;;;;1999.90;999.90;;;;;;;7.99;100.00;92297.78;4979591;28;20273;-58
2022/11/18 02:57:06;;;;;;;1999.90;999.90;;;;;;;7.99;100.00;92298.53;4979689;28;20278;-60
2022/11/18 02:59:32;;;;;;;1999.90;999.90;;;;;;;7.99;100.00;92301.25;4979717;28;20202;-67
2022/11/18 03:01:57;;;;;;;1999.90;999.90;;;;;;;8.01;100.00;92298.81;4979645;28;20187;-68
2022/11/18 03:04:24;;;;;;;1999.90;999.90;;;;;;;8.01;100.00;92301.53;4979204;28;20199;-66
2022/11/18 03:07:30;;;;;;;1999.90;999.90;;;;;;;8.03;100.00;92293.69;4979825;28;20182;-66
2022/11/18 03:09:58;;;;;;;1999.90;999.90;;;;;;;8.06;100.00;92292.75;4979370;28;20178;-67
2022/11/18 03:12:45;;;;;;;1999.90;999.90;;;;;;;8.06;100.00;92276.44;4979412;28;20178;-67
2022/11/18 03:15:22;;;;;;;1999.90;999.90;;;;;;;8.04;100.00;92281.59;4979093;28;20180;-59
2022/11/18 03:17:51;;;;;;;1999.90;999.90;;;;;;;8.04;100.00;92278.09;4979400;28;20174;-59
2022/11/18 03:20:43;;;;;;;1999.90;999.90;;;;;;;8.02;100.00;92281.31;4996282;28;20258;-60
2022/11/18 03:23:30;;;;;;;1999.90;999.90;;;;;;;8.04;100.00;92273.44;4979250;28;20183;-59
2022/11/18 03:26:12;;;;;;;1999.90;999.90;;;;;;;8.05;100.00;92274.94;4979779;28;20174;-59
2022/11/18 03:28:47;;;;;;;1999.90;999.90;;;;;;;8.06;100.00;92271.03;4978583;28;20168;-60
2022/11/18 03:31:41;;;;;;;1999.90;999.90;;;;;;;8.04;100.00;92273.44;4980029;28;20253;-57
2022/11/18 03:34:15;;;;;;;1999.90;999.90;;;;;;;8.06;100.00;92265.59;4979837;28;20176;-61
2022/11/18 03:36:46;;;;;;;1999.90;999.90;;;;;;;8.06;100.00;92279.16;4979449;28;20211;-59
2022/11/18 03:39:14;;;;;;;1999.90;999.90;;;;;;;8.06;100.00;92281.13;4979484;28;20172;-59
2022/11/18 03:41:47;;;;;;;1999.90;999.90;;;;;;;8.05;100.00;92288.50;4978705;28;20186;-59
2022/11/18 03:44:19;;;;;;;1999.90;999.90;;;;;;;8.06;100.00;92292.75;4978968;28;20174;-59
2022/11/18 03:46:50;;;;;;;1999.90;999.90;;;;;;;8.07;100.00;92272.50;4979188;28;20171;-60
2022/11/18 03:49:24;;;;;;;1999.90;999.90;;;;;;;8.06;100.00;92286.56;4979250;28;20195;-61
2022/11/18 03:52:00;;;;;;;1999.90;999.90;;;;;;;8.02;100.00;92284.03;4979243;28;20182;-59
2022/11/18 03:54:32;;;;;;;1999.90;999.90;;;;;;;8.02;100.00;92286.75;4978857;28;20237;-60
2022/11/18 03:57:06;;;;;;;1999.90;999.90;;;;;;;7.99;100.00;92287.66;4978297;28;20243;-60
2022/11/18 03:59:44;;;;;;;1999.90;999.90;;;;;;;7.99;100.00;92287.66;4978290;28;20287;-59
2022/11/18 04:02:17;;;;;;;1999.90;999.90;;;;;;;7.98;100.00;92290.84;4978548;28;20187;-59
2022/11/18 04:04:46;;;;;;;1999.90;999.90;;;;;;;7.95;100.00;92292.53;4979118;28;20191;-59
2022/11/18 04:07:23;;;;;;;1999.90;999.90;;;;;;;7.95;100.00;92310.78;4978186;28;20180;-60
2022/11/18 04:09:58;;;;;;;1999.90;999.90;;;;;;;7.91;100.00;92319.13;4978706;28;20172;-59
2022/11/18 04:12:28;;;;;;;1999.90;999.90;;;;;;;7.95;100.00;92314.25;4978555;28;20211;-64
2022/11/18 04:14:54;;;;;;;1999.90;999.90;;;;;;;7.96;100.00;92283.16;4978321;28;20187;-63
2022/11/18 04:17:22;;;;;;;1999.90;999.90;;;;;;;7.96;100.00;92291.31;4978221;28;20207;-63
2022/11/18 04:19:48;;;;;;;1999.90;999.90;;;;;;;7.98;100.00;92278.00;4977876;28;20382;-64
2022/11/18 04:22:14;;;;;;;1999.90;999.90;;;;;;;7.97;100.00;92273.06;4978701;28;20275;-63
2022/11/18 04:24:39;;;;;;;1999.90;999.90;;;;;;;7.97;100.00;92281.94;4978106;28;20182;-63
2022/11/18 04:27:06;;;;;;;1999.90;999.90;;;;;;;7.95;100.00;92276.22;4978085;28;20190;-60
2022/11/18 04:29:32;;;;;;;1999.90;999.90;;;;;;;7.91;100.00;92286.50;4978247;28;20194;-59
2022/11/18 04:31:58;;;;;;;1999.90;999.90;;;;;;;7.92;100.00;92277.16;4978132;28;20233;-59
2022/11/18 04:34:27;;;;;;;1999.90;999.90;;;;;;;7.93;100.00;92284.06;4978094;28;20187;-59
2022/11/18 04:36:53;;;;;;;1999.90;999.90;;;;;;;7.93;100.00;92275.91;4978618;28;20182;-58
2022/11/18 04:39:18;;;;;;;1999.90;999.90;;;;;;;7.91;100.00;92274.88;4977588;28;20204;-59
2022/11/18 04:41:56;;;;;;;1999.90;999.90;;;;;;;7.90;100.00;92268.69;4978920;28;20178;-60
2022/11/18 04:44:24;;;;;;;1999.90;999.90;;;;;;;7.89;100.00;92272.63;4978357;28;20174;-59
2022/11/18 04:46:50;;;;;;;1999.90;999.90;;;;;;;7.89;100.00;92267.19;4978828;28;20186;-67
2022/11/18 04:49:15;;;;;;;1999.90;999.90;;;;;;;7.91;100.00;92264.03;4978157;28;20177;-59
2022/11/18 04:51:42;;;;;;;1999.90;999.90;;;;;;;7.88;100.00;92257.56;4978453;28;20179;-59
2022/11/18 04:54:08;;;;;;;1999.90;999.90;;;;;;;7.86;100.00;92257.25;4977467;28;20227;-59
2022/11/18 04:56:33;;;;;;;1999.90;999.90;;;;;;;7.86;100.00;92257.25;4977539;28;20263;-59
2022/11/18 04:59:00;;;;;;;1999.90;999.90;;;;;;;7.82;100.00;92256.69;4977829;28;20280;-60
2022/11/18 05:01:27;;;;;;;1999.90;999.90;;;;;;;7.86;100.00;92246.38;4977642;28;20249;-59
2022/11/18 05:03:53;;;;;;;1999.90;999.90;;;;;;;7.86;100.00;92245.66;4977655;28;20198;-62
2022/11/18 05:06:18;;;;;;;1999.90;999.90;;;;;;;7.78;100.00;92239.81;4978224;28;20251;-66
2022/11/18 05:08:44;;;;;;;1999.90;999.90;;;;;;;7.81;100.00;92233.44;4977826;28;20178;-62
2022/11/18 05:13:53;;;;;;;1999.90;999.90;;;;;;;7.81;100.00;92230.72;4994974;28;20213;-64
2022/11/18 05:16:19;;;;;;;1999.90;999.90;;;;;;;7.82;100.00;92234.94;4978178;28;20168;-65
2022/11/18 05:18:44;;;;;;;1999.90;999.90;;;;;;;7.82;100.00;92232.22;4977558;28;20697;-65
2022/11/18 05:21:10;;;;;;;1999.90;999.90;;;;;;;7.77;100.00;92232.88;4977741;28;20202;-65
2022/11/18 05:23:35;;;;;;;1999.90;999.90;;;;;;;7.78;100.00;92245.22;4977570;28;20179;-63
2022/11/18 05:26:05;;;;;;;1999.90;999.90;;;;;;;7.75;100.00;92246.16;4977374;28;20183;-63
2022/11/18 05:28:31;;;;;;;1999.90;999.90;;;;;;;7.72;100.00;92241.63;4977578;28;20172;-62
2022/11/18 05:30:56;;;;;;;1999.90;999.90;;;;;;;7.74;100.00;92227.59;4977699;28;20186;-63
2022/11/18 05:33:21;;;;;;;1999.90;999.90;;;;;;;7.74;100.00;92228.38;4977510;28;20191;-63
2022/11/18 05:35:47;;;;;;;1999.90;999.90;;;;;;;7.73;100.00;92239.69;4977405;28;20267;-63
2022/11/18 05:38:12;;;;;;;1999.90;999.90;;;;;;;7.68;100.00;92243.78;4977460;28;20176;-63
2022/11/18 05:40:38;;;;;;;1999.90;999.90;;;;;;;7.71;100.00;92248.28;4977519;28;20235;-66
2022/11/18 05:43:12;;;;;;;1999.90;999.90;;;;;;;7.75;100.00;92251.59;4977914;28;20338;-64
2022/11/18 05:45:42;;;;;;;1999.90;999.90;;;;;;;7.73;100.00;92270.31;4977087;28;20170;-60
2022/11/18 05:48:08;;;;;;;1999.90;999.90;;;;;;;7.69;100.00;92280.59;4977362;28;20179;-60
2022/11/18 05:50:36;;;;;;;1999.90;999.90;;;;;;;7.67;100.00;92293.13;4977403;28;20186;-59
2022/11/18 05:53:03;;;;;;;1999.90;999.90;;;;;;;7.66;100.00;92308.69;4980659;28;20232;-59
2022/11/18 05:55:34;;;;;;;1999.90;999.90;;;;;;;7.65;100.00;92317.28;4980428;28;20631;-59
2022/11/18 05:57:59;;;;;;;1999.90;999.90;;;;;;;7.61;100.00;92339.16;4981387;28;20186;-58
2022/11/18 06:00:24;;;;;;;1999.90;999.90;;;;;;;7.61;100.00;92350.00;4980679;28;20198;-61
2022/11/18 06:02:52;;;;;;;1999.90;999.90;;;;;;;7.60;100.00;92364.81;4981030;28;20238;-59
2022/11/18 06:05:20;;;;;;;1999.90;999.90;;;;;;;7.60;100.00;92402.81;4980615;28;20194;-61
2022/11/18 06:07:46;;;;;;;1999.90;999.90;;;;;;;7.61;100.00;92419.88;4981177;28;20245;-60
2022/11/18 06:10:20;;;;;;;1999.90;999.90;;;;;;;7.56;100.00;92429.38;4997804;28;20179;-60
2022/11/18 06:12:49;;;;;;;1999.90;999.90;;;;;;;7.58;100.00;92447.94;4981090;28;20168;-60
2022/11/18 06:15:25;;;;;;;1999.90;999.90;;;;;;;7.56;100.00;92467.41;4980471;28;20175;-59
2022/11/18 06:18:00;;;;;;;1999.90;999.90;;;;;;;7.51;100.00;92503.31;4980714;28;20190;-61
2022/11/18 06:20:26;;;;;;;1999.90;999.90;;;;;;;7.50;100.00;92528.94;4980243;28;20270;-61
2022/11/18 06:22:54;;;;;;;1999.90;999.90;;;;;;;7.46;100.00;92552.03;4980315;28;20190;-61
2022/11/18 06:25:20;;;;;;;1999.90;999.90;;;;;;;7.52;100.00;92564.53;4980225;28;20178;-61
2022/11/18 06:27:48;;;;;;;1999.90;999.90;;;;;;;7.53;100.00;92571.47;4979879;28;20178;-62
2022/11/18 06:30:14;;;;;;;1999.90;999.90;;;;;;;7.59;100.00;92585.97;4980725;28;20179;-62
2022/11/18 06:32:39;;;;;;;1999.90;999.90;;;;;;;7.59;100.00;92602.25;4980050;28;20184;-62
2022/11/18 06:35:05;;;;;;;1999.90;999.90;;;;;;;7.68;100.00;92626.69;4980068;28;20186;-60
2022/11/18 06:37:30;;;;;;;1999.90;999.90;;;;;;;7.70;100.00;92651.44;4980072;28;20333;-62
2022/11/18 06:39:56;;;;;;;1999.90;999.90;;;;;;;7.71;100.00;92677.38;4980034;28;20558;-70
2022/11/18 06:45:05;;;;;;;1999.90;999.90;;;;;;;7.82;100.00;92715.72;4997485;28;20185;-73
2022/11/18 06:47:31;;;;;;;1999.90;999.90;;;;;;;7.81;100.00;92711.50;4979764;28;20266;-73
2022/11/18 06:49:56;;;;;;;1999.90;999.90;;;;;;;7.86;100.00;92721.03;4996934;28;20626;-73
2022/11/18 06:52:22;;;;;;;1999.90;999.90;;;;;;;7.83;100.00;92736.25;4979891;28;20525;-72
2022/11/18 06:54:48;;;;;;;1999.90;999.90;;;;;;;7.87;100.00;92739.56;4979753;28;20225;-65
2022/11/18 06:57:13;;;;;;;1999.90;999.90;;;;;;;7.87;100.00;92761.31;4979757;28;20179;-60
2022/11/18 06:59:38;;;;;;;1999.90;999.90;;;;;;;7.91;100.00;92770.09;4979941;28;20286;-61
2022/11/18 07:02:04;;;;;;;1999.90;999.90;;;;;;;7.92;100.00;92793.31;4979335;28;20176;-61
2022/11/18 07:04:29;;;;;;;1999.90;999.90;;;;;;;7.90;100.00;92809.31;4979748;28;20199;-60
2022/11/18 07:06:54;;;;;;;1999.90;999.90;;;;;;;7.91;100.00;92829.84;4979391;28;20172;-62
2022/11/18 07:09:20;;;;;;;1999.90;999.90;;;;;;;7.99;100.00;92836.53;4979373;28;20206;-61
2022/11/18 07:11:45;;;;;;;1999.90;999.90;;;;;;;8.02;100.00;92851.16;4979911;28;20262;-60
2022/11/18 07:14:12;;;;;;;1999.90;999.90;;;;;;;8.03;100.00;92856.16;4980009;28;20179;-59
2022/11/18 07:16:38;;;;;;;1999.90;999.90;;;;;;;8.04;100.00;92867.75;4979868;28;20198;-60
2022/11/18 07:19:11;;;;;;;1999.90;999.90;;;;;;;8.05;100.00;92875.47;4978920;28;20183;-61
2022/11/18 07:21:38;;;;;;;1999.90;999.90;;;;;;;8.11;100.00;92887.28;4979200;28;20213;-60
2022/11/18 07:24:07;;;;;;;1999.90;999.90;;;;;;;8.10;100.00;92896.63;4979315;28;20191;-60
2022/11/18 07:26:33;;;;;;;1999.90;999.90;;;;;;;8.15;100.00;92908.88;4979306;28;20186;-60
2022/11/18 07:28:59;;;;;;;1999.90;999.90;;;;;;;8.21;100.00;92905.16;4979740;28;20227;-61
2022/11/18 07:31:24;;;;;;;1999.90;999.90;;;;;;;8.24;100.00;92934.16;4978781;28;20597;-62
2022/11/18 07:33:53;;;;;;;1999.90;999.90;;;;;;;8.26;100.00;92948.06;4979002;28;20178;-63
2022/11/18 07:36:21;;;;;;;1999.90;999.90;;;;;;;8.32;100.00;92957.16;4978445;28;20187;-63
2022/11/18 07:38:46;;;;;;;1999.90;999.90;;;;;;;8.30;100.00;92969.69;4979828;28;20176;-64
2022/11/18 07:41:14;;;;;;;1999.90;999.90;;;;;;;8.30;100.00;92970.41;4978708;28;20200;-63
2022/11/18 07:43:40;;;;;;;1999.90;999.90;;;;;;;8.33;100.00;92976.91;4978761;28;20186;-64
2022/11/18 07:46:15;;;;;;;1999.90;999.90;;;;;;;8.38;100.00;92976.34;4978749;28;20200;-64
2022/11/18 07:48:42;;;;;;;1999.90;999.90;;;;;;;8.36;100.00;92984.94;4979292;28;20190;-64
2022/11/18 07:51:08;;;;;;;1999.90;999.90;;;;;;;8.40;100.00;92982.09;4979026;28;20180;-61
2022/11/18 07:53:34;;;;;;;1999.90;999.90;;;;;;;8.44;100.00;92982.69;4978547;28;20182;-68
2022/11/18 07:55:59;;;;;;;1999.90;999.90;;;;;;;8.45;100.00;92982.25;4978374;28;20176;-69
2022/11/18 07:58:25;;;;;;;1999.90;999.90;;;;;;;8.50;100.00;92989.06;4978488;28;20195;-69
2022/11/18 08:00:50;;;;;;;1999.90;999.90;;;;;;;8.50;100.00;92989.84;4979121;28;20219;-69
2022/11/18 08:03:15;;;;;;;1999.90;999.90;;;;;;;8.52;100.00;93006.44;4978695;28;20286;-69
2022/11/18 08:05:41;;;;;;;1999.90;999.90;;;;;;;8.55;100.00;93015.66;4978876;28;20291;-68
2022/11/18 08:08:06;;;;;;;1999.90;999.90;;;;;;;8.55;100.00;93040.91;4978650;28;20554;-60
2022/11/18 08:10:31;;;;;;;1999.90;999.90;;;;;;;8.53;100.00;93051.47;4978719;28;20194;-60
2022/11/18 08:12:57;;;;;;;1999.90;999.90;;;;;;;8.59;100.00;93071.47;4978388;28;20176;-61
2022/11/18 08:15:23;;;;;;;1999.90;999.90;;;;;;;8.61;100.00;93071.78;4978106;28;20530;-60
2022/11/18 08:17:49;;;;;;;1999.90;999.90;;;;;;;8.73;100.00;93079.06;4978186;28;20219;-60
2022/11/18 08:20:14;;;;;;;1999.90;999.90;;;;;;;8.78;100.00;93080.47;4977814;28;20232;-60
2022/11/18 08:22:40;;;;;;;1999.90;999.90;;;;;;;8.77;100.00;93109.63;4978399;28;20184;-59
2022/11/18 08:25:06;;;;;;;1999.90;999.90;;;;;;;8.75;100.00;93147.38;4978111;28;20188;-59
2022/11/18 08:27:31;;;;;;;1999.90;999.90;;;;;;;8.85;100.00;93151.69;4978778;28;20176;-63
2022/11/18 08:29:57;;;;;;;1999.90;999.90;;;;;;;8.83;100.00;93181.31;4978349;28;20184;-65
2022/11/18 08:32:22;;;;;;;1999.90;999.90;;;;;;;8.75;100.00;93212.69;4978614;28;20209;-64
2022/11/18 08:34:49;;;;;;;1999.90;999.90;;;;;;;8.68;100.00;93234.75;4977682;28;20183;-64
2022/11/18 08:37:15;;;;;;;1999.90;999.90;;;;;;;8.71;100.00;93246.69;4978126;28;20215;-64
2022/11/18 08:39:40;;;;;;;1999.90;999.90;;;;;;;8.72;100.00;93246.25;4977924;28;20203;-64
2022/11/18 08:42:06;;;;;;;1999.90;999.90;;;;;;;8.67;100.00;93244.09;4978527;28;20266;-64
2022/11/18 08:44:33;;;;;;;1999.90;999.90;;;;;;;8.65;100.00;93235.63;4977796;28;20172;-60
2022/11/18 08:46:59;;;;;;;1999.90;999.90;;;;;;;8.58;100.00;93244.03;4978515;28;20720;-59
2022/11/18 08:49:24;;;;;;;1999.90;999.90;;;;;;;8.59;100.00;93250.22;4995147;28;20266;-61
2022/11/18 08:51:49;;;;;;;1999.90;999.90;;;;;;;8.60;100.00;93243.59;4978052;28;20275;-61
2022/11/18 08:54:15;;;;;;;1999.90;999.90;;;;;;;8.63;100.00;93232.56;4977563;28;20224;-60
2022/11/18 08:56:40;;;;;;;1999.90;999.90;;;;;;;8.52;100.00;93234.19;4978654;28;20183;-60
2022/11/18 08:59:07;;;;;;;1999.90;999.90;;;;;;;8.54;100.00;93229.81;4977864;28;20258;-61
2022/11/18 09:01:32;;;;;;;1999.90;999.90;;;;;;;8.58;100.00;93222.28;4977529;28;20207;-60
2022/11/18 09:03:58;;;;;;;1999.90;999.90;;;;;;;8.63;100.00;93210.06;4977861;28;20206;-60
2022/11/18 09:06:24;;;;;;;1999.90;999.90;;;;;;;8.60;100.00;93219.13;4978281;28;20183;-60
2022/11/18 09:08:50;;;;;;;1999.90;999.90;;;;;;;8.55;100.00;93223.16;4978327;28;20176;-58
2022/11/18 09:11:26;;;;;;;1999.90;999.90;;;;;;;8.51;100.00;93225.25;4977730;28;20184;-59
2022/11/18 09:13:56;;;;;;;1999.90;999.90;;;;;;;8.46;100.00;93220.38;4977875;28;20186;-61
2022/11/18 09:16:24;;;;;;;1999.90;999.90;;;;;;;8.44;100.00;93230.94;4978173;28;20230;-62
2022/11/18 09:18:50;;;;;;;1999.90;999.90;;;;;;;8.48;100.00;93220.69;4977681;28;20189;-61
2022/11/18 09:21:16;;;;;;;1999.90;999.90;;;;;;;8.48;100.00;93219.91;4978153;28;20204;-61
2022/11/18 09:23:41;;;;;;;1999.90;999.90;;;;;;;8.47;100.00;93208.28;4978062;28;20178;-61
2022/11/18 09:26:12;;;;;;;1999.90;999.90;;;;;;;8.48;100.00;93204.38;4979340;28;20262;-66
2022/11/18 09:28:38;;;;;;;1999.90;999.90;;;;;;;8.51;100.00;93192.59;4980913;28;20176;-66
2022/11/18 09:31:06;;;;;;;1999.90;999.90;;;;;;;8.47;100.00;93188.50;4982039;28;20226;-65
2022/11/18 09:33:32;;;;;;;1999.90;999.90;;;;;;;8.50;100.00;93188.38;4982015;28;20206;-65
2022/11/18 09:35:57;;;;;;;1999.90;999.90;;;;;;;8.42;100.00;93200.69;4981394;28;20219;-65
2022/11/18 09:38:25;;;;;;;1999.90;999.90;;;;;;;8.41;100.00;93182.88;4981393;28;20187;-65
2022/11/18 09:41:03;;;;;;;1999.90;999.90;;;;;;;8.43;100.00;93183.19;4981075;28;20234;-65
2022/11/18 09:43:46;;;;;;;1999.90;999.90;;;;;;;8.50;100.00;93163.13;4980565;28;20183;-61
2022/11/18 09:46:37;;;;;;;1999.90;999.90;;;;;;;8.46;100.00;93157.84;4981645;28;20274;-60
2022/11/18 09:49:13;;;;;;;1999.90;999.90;;;;;;;8.50;100.00;93144.88;4981532;28;20266;-61
2022/11/18 09:51:48;;;;;;;1999.90;999.90;;;;;;;8.51;100.00;93143.66;4981611;28;20185;-61
2022/11/18 09:54:19;;;;;;;1999.90;999.90;;;;;;;8.52;100.00;93147.88;4981036;28;20226;-61
2022/11/18 09:56:44;;;;;;;1999.90;999.90;;;;;;;8.51;100.00;93135.50;4981782;28;20186;-61
2022/11/18 09:59:13;;;;;;;1999.90;999.90;;;;;;;8.46;100.00;93130.66;4980935;28;20530;-68
2022/11/18 10:01:39;;;;;;;1999.90;999.90;;;;;;;8.41;100.00;93117.59;4981261;28;20187;-59
2022/11/18 10:04:04;;;;;;;1999.90;999.90;;;;;;;8.39;100.00;93119.25;4980621;28;20204;-59
2022/11/18 10:06:32;;;;;;;1999.90;999.90;;;;;;;8.29;100.00;93115.72;4980628;28;20186;-59
2022/11/18 10:09:20;;;;;;;1999.90;999.90;;;;;;;8.26;100.00;93119.31;4980691;28;20180;-59
2022/11/18 10:12:00;;;;;;;1999.90;999.90;;;;;;;8.15;100.00;93113.50;4981324;28;20216;-59
2022/11/18 10:14:41;;;;;;;1999.90;999.90;;;;;;;8.06;100.00;93110.72;4980585;28;20180;-59
2022/11/18 10:17:31;;;;;;;1999.90;999.90;;;;;;;7.97;100.00;93102.50;4980545;28;20179;-59
2022/11/18 10:20:30;;;;;;;1999.90;999.90;;;;;;;7.95;100.00;93077.72;4980133;28;20217;-60
2022/11/18 10:23:04;;;;;;;1999.90;999.90;;;;;;;8.06;100.00;93063.75;4980935;28;20168;-60
2022/11/18 10:25:29;;;;;;;1999.90;999.90;;;;;;;8.04;100.00;93055.28;4980857;28;20198;-60
2022/11/18 10:27:55;;;;;;;1999.90;999.90;;;;;;;8.05;100.00;93030.38;4980790;28;20524;-60
2022/11/18 10:30:24;;;;;;;1999.90;999.90;;;;;;;8.10;100.00;93020.88;4980361;28;20172;-60
2022/11/18 10:32:53;;;;;;;1999.90;999.90;;;;;;;8.20;100.00;93015.03;4980738;28;20233;-60
2022/11/18 10:35:28;;;;;;;1999.90;999.90;;;;;;;8.18;100.00;93011.25;4980797;28;20241;-60
2022/11/18 10:38:20;;;;;;;1999.90;999.90;;;;;;;8.15;100.00;93002.03;4979454;28;20258;-62
2022/11/18 10:40:48;;;;;;;1999.90;999.90;;;;;;;8.20;100.00;92960.69;4977550;28;20212;-63
2022/11/18 10:43:42;;;;;;;1999.90;999.90;;;;;;;8.27;100.00;92954.25;4979791;28;20180;-61
2022/11/18 10:46:28;;;;;;;1999.90;999.90;;;;;;;8.25;100.00;92940.34;4980051;28;20172;-62
2022/11/18 10:49:08;;;;;;;1999.90;999.90;;;;;;;8.12;100.00;92943.13;4979598;28;20222;-61
2022/11/18 10:52:02;;;;;;;1999.90;999.90;;;;;;;8.04;100.00;92947.34;4979808;28;20234;-61
2022/11/18 10:54:28;;;;;;;1999.90;999.90;;;;;;;7.95;100.00;92941.88;4979742;28;20315;-62
2022/11/18 10:56:56;;;;;;;1999.90;999.90;;;;;;;7.93;100.00;92929.91;4979707;28;20180;-60
2022/11/18 10:59:37;;;;;;;1999.90;999.90;;;;;;;8.00;100.00;92916.06;4979501;28;20182;-60
2022/11/18 11:02:14;;;;;;;1999.90;999.90;;;;;;;7.97;100.00;92893.25;4980145;28;20254;-60
2022/11/18 11:04:40;;;;;;;1999.90;999.90;;;;;;;7.91;100.00;92905.94;4979966;28;20253;-59
2022/11/18 11:07:26;;;;;;;1999.90;999.90;;;;;;;7.95;100.00;92903.84;4979424;28;20221;-60
2022/11/18 11:10:06;;;;;;;1999.90;999.90;;;;;;;7.88;100.00;92868.03;4979415;28;20214;-59
2022/11/18 11:12:34;;;;;;;1999.90;999.90;;;;;;;7.89;100.00;92859.44;4979425;28;20172;-71
2022/11/18 11:15:17;;;;;;;1999.90;999.90;;;;;;;7.92;100.00;92834.09;4979612;28;20174;-64
2022/11/18 11:18:40;;;;;;;1999.90;999.90;;;;;;;7.98;100.00;92818.69;4979851;28;20639;-64